sensor_id;sensor_type;location;lat;lon;timestamp;pressure;altitude;pressure_sealevel;temperature;humidity
58090;BME280;45149;50.976;6.120;2022-07-29T00:00:12;100376.94;;;17.77;100.00
58090;BME280;45149;50.976;6.120;2022-07-29T00:02:37;100374.50;;;17.76;100.00
58090;BME280;45149;50.976;6.120;2022-07-29T00:05:03;100367.50;;;17.80;100.00
58090;BME280;45149;50.976;6.120;2022-07-29T00:07:29;100365.53;;;17.60;100.00
58090;BME280;45149;50.976;6.120;2022-07-29T00:09:55;100353.59;;;17.51;100.00
58090;BME280;45149;50.976;6.120;2022-07-29T00:12:23;100357.97;;;17.57;100.00
58090;BME280;45149;50.976;6.120;2022-07-29T00:14:48;100351.56;;;17.83;100.00
58090;BME280;45149;50.976;6.120;2022-07-29T00:17:14;100346.16;;;17.89;100.00
58090;BME280;45149;50.976;6.120;2022-07-29T00:19:39;100343.44;;;17.83;100.00
58090;BME280;45149;50.976;6.120;2022-07-29T00:22:04;100342.09;;;17.81;100.00
58090;BME280;45149;50.976;6.120;2022-07-29T00:24:30;100347.25;;;17.82;100.00
58090;BME280;45149;50.976;6.120;2022-07-29T00:26:55;100345.63;;;17.81;100.00
58090;BME280;45149;50.976;6.120;2022-07-29T00:29:20;100353.13;;;17.64;100.00
58090;BME280;45149;50.976;6.120;2022-07-29T00:31:46;100355.25;;;17.57;100.00
58090;BME280;45149;50.976;6.120;2022-07-29T00:34:11;100357.19;;;17.66;100.00
58090;BME280;45149;50.976;6.120;2022-07-29T00:36:55;100357.47;;;17.70;100.00
58090;BME280;45149;50.976;6.120;2022-07-29T00:39:21;100354.00;;;17.90;100.00
58090;BME280;45149;50.976;6.120;2022-07-29T00:41:46;100359.16;;;17.92;100.00
58090;BME280;45149;50.976;6.120;2022-07-29T00:44:12;100361.31;;;17.90;100.00
58090;BME280;45149;50.976;6.120;2022-07-29T00:46:37;100365.63;;;17.91;100.00
58090;BME280;45149;50.976;6.120;2022-07-29T00:49:02;100364.00;;;17.85;100.00
58090;BME280;45149;50.976;6.120;2022-07-29T00:51:28;100367.19;;;17.71;100.00
58090;BME280;45149;50.976;6.120;2022-07-29T00:53:54;100367.69;;;17.63;100.00
58090;BME280;45149;50.976;6.120;2022-07-29T00:56:19;100365.78;;;17.53;100.00
58090;BME280;45149;50.976;6.120;2022-07-29T00:58:46;100357.94;;;17.52;100.00
58090;BME280;45149;50.976;6.120;2022-07-29T01:01:13;100359.44;;;17.27;100.00
58090;BME280;45149;50.976;6.120;2022-07-29T01:03:38;100357.00;;;16.83;100.00
58090;BME280;45149;50.976;6.120;2022-07-29T01:06:04;100368.69;;;16.56;100.00
58090;BME280;45149;50.976;6.120;2022-07-29T01:08:31;100356.16;;;16.39;100.00
58090;BME280;45149;50.976;6.120;2022-07-29T01:10:58;100354.00;;;16.41;100.00
58090;BME280;45149;50.976;6.120;2022-07-29T01:13:25;100349.19;;;16.43;100.00
58090;BME280;45149;50.976;6.120;2022-07-29T01:15:55;100343.69;;;16.33;100.00
58090;BME280;45149;50.976;6.120;2022-07-29T01:18:34;100342.31;;;16.30;100.00
58090;BME280;45149;50.976;6.120;2022-07-29T01:29:05;100339.63;;;16.30;100.00
58090;BME280;45149;50.976;6.120;2022-07-29T01:31:38;100344.47;;;16.28;100.00
58090;BME280;45149;50.976;6.120;2022-07-29T01:34:08;100343.41;;;16.29;100.00
58090;BME280;45149;50.976;6.120;2022-07-29T01:36:47;100335.09;;;16.36;100.00
58090;BME280;45149;50.976;6.120;2022-07-29T01:39:25;100337.41;;;16.22;100.00
58090;BME280;45149;50.976;6.120;2022-07-29T01:41:59;100327.47;;;16.28;100.00
58090;BME280;45149;50.976;6.120;2022-07-29T01:44:35;100326.34;;;16.19;100.00
58090;BME280;45149;50.976;6.120;2022-07-29T01:47:10;100326.41;;;16.29;100.00
58090;BME280;45149;50.976;6.120;2022-07-29T01:49:43;100315.94;;;16.33;100.00
58090;BME280;45149;50.976;6.120;2022-07-29T01:52:15;100323.25;;;16.37;100.00
58090;BME280;45149;50.976;6.120;2022-07-29T01:54:48;100322.09;;;16.28;100.00
58090;BME280;45149;50.976;6.120;2022-07-29T01:57:18;100328.31;;;16.28;100.00
58090;BME280;45149;50.976;6.120;2022-07-29T01:59:46;100324.50;;;16.24;100.00
58090;BME280;45149;50.976;6.120;2022-07-29T02:02:14;100326.66;;;16.27;100.00
58090;BME280;45149;50.976;6.120;2022-07-29T02:04:40;100327.25;;;16.29;100.00
58090;BME280;45149;50.976;6.120;2022-07-29T02:07:10;100326.47;;;16.34;100.00
58090;BME280;45149;50.976;6.120;2022-07-29T02:09:39;100330.22;;;16.33;100.00
58090;BME280;45149;50.976;6.120;2022-07-29T02:12:07;100322.34;;;16.26;100.00
58090;BME280;45149;50.976;6.120;2022-07-29T02:14:37;100320.47;;;16.27;100.00
58090;BME280;45149;50.976;6.120;2022-07-29T02:17:03;100309.44;;;16.28;100.00
58090;BME280;45149;50.976;6.120;2022-07-29T02:19:31;100306.06;;;16.11;100.00
58090;BME280;45149;50.976;6.120;2022-07-29T02:21:58;100307.69;;;16.12;100.00
58090;BME280;45149;50.976;6.120;2022-07-29T02:24:25;100311.22;;;16.18;100.00
58090;BME280;45149;50.976;6.120;2022-07-29T02:26:53;100308.59;;;16.23;100.00
58090;BME280;45149;50.976;6.120;2022-07-29T02:29:23;100302.75;;;16.36;100.00
58090;BME280;45149;50.976;6.120;2022-07-29T02:31:51;100297.28;;;16.26;100.00
58090;BME280;45149;50.976;6.120;2022-07-29T02:34:19;100297.25;;;16.21;100.00
58090;BME280;45149;50.976;6.120;2022-07-29T02:36:45;100305.00;;;16.12;100.00
58090;BME280;45149;50.976;6.120;2022-07-29T02:39:12;100304.88;;;16.02;100.00
58090;BME280;45149;50.976;6.120;2022-07-29T02:41:50;100306.00;;;16.06;100.00
58090;BME280;45149;50.976;6.120;2022-07-29T02:44:23;100307.78;;;15.95;100.00
58090;BME280;45149;50.976;6.120;2022-07-29T02:46:53;100310.72;;;15.93;100.00
58090;BME280;45149;50.976;6.120;2022-07-29T02:52:21;100318.41;;;15.79;100.00
58090;BME280;45149;50.976;6.120;2022-07-29T02:54:57;100318.53;;;15.90;100.00
58090;BME280;45149;50.976;6.120;2022-07-29T02:57:32;100315.06;;;15.94;100.00
58090;BME280;45149;50.976;6.120;2022-07-29T03:00:03;100317.91;;;15.83;100.00
58090;BME280;45149;50.976;6.120;2022-07-29T03:02:34;100330.72;;;15.75;100.00
58090;BME280;45149;50.976;6.120;2022-07-29T03:05:01;100335.44;;;15.85;100.00
58090;BME280;45149;50.976;6.120;2022-07-29T03:07:27;100341.91;;;15.84;100.00
58090;BME280;45149;50.976;6.120;2022-07-29T03:09:54;100343.91;;;15.77;100.00
58090;BME280;45149;50.976;6.120;2022-07-29T03:12:20;100340.16;;;15.78;100.00
58090;BME280;45149;50.976;6.120;2022-07-29T03:14:46;100342.63;;;15.79;100.00
58090;BME280;45149;50.976;6.120;2022-07-29T03:17:11;100344.06;;;15.87;100.00
58090;BME280;45149;50.976;6.120;2022-07-29T03:19:38;100332.72;;;15.85;100.00
58090;BME280;45149;50.976;6.120;2022-07-29T03:22:04;100327.78;;;15.77;100.00
58090;BME280;45149;50.976;6.120;2022-07-29T03:24:35;100340.56;;;15.87;100.00
58090;BME280;45149;50.976;6.120;2022-07-29T03:27:01;100334.97;;;15.93;100.00
58090;BME280;45149;50.976;6.120;2022-07-29T03:29:27;100346.25;;;15.90;100.00
58090;BME280;45149;50.976;6.120;2022-07-29T03:31:53;100341.31;;;15.82;100.00
58090;BME280;45149;50.976;6.120;2022-07-29T03:34:19;100348.59;;;15.82;100.00
58090;BME280;45149;50.976;6.120;2022-07-29T03:36:44;100348.63;;;15.87;100.00
58090;BME280;45149;50.976;6.120;2022-07-29T03:39:10;100349.00;;;15.95;100.00
58090;BME280;45149;50.976;6.120;2022-07-29T03:41:38;100336.91;;;15.98;100.00
58090;BME280;45149;50.976;6.120;2022-07-29T03:44:05;100336.09;;;15.98;100.00
58090;BME280;45149;50.976;6.120;2022-07-29T03:46:33;100333.00;;;15.84;100.00
58090;BME280;45149;50.976;6.120;2022-07-29T03:49:02;100326.66;;;15.73;100.00
58090;BME280;45149;50.976;6.120;2022-07-29T03:51:29;100318.09;;;15.76;100.00
58090;BME280;45149;50.976;6.120;2022-07-29T03:53:55;100330.72;;;15.75;100.00
58090;BME280;45149;50.976;6.120;2022-07-29T03:56:21;100333.00;;;15.84;100.00
58090;BME280;45149;50.976;6.120;2022-07-29T03:58:50;100336.19;;;15.81;100.00
58090;BME280;45149;50.976;6.120;2022-07-29T04:01:17;100334.44;;;15.69;100.00
58090;BME280;45149;50.976;6.120;2022-07-29T04:03:44;100337.75;;;15.76;100.00
58090;BME280;45149;50.976;6.120;2022-07-29T04:06:11;100336.50;;;15.84;100.00
58090;BME280;45149;50.976;6.120;2022-07-29T04:08:36;100335.16;;;15.87;100.00
58090;BME280;45149;50.976;6.120;2022-07-29T04:11:02;100335.19;;;15.65;100.00
58090;BME280;45149;50.976;6.120;2022-07-29T04:13:28;100331.00;;;15.52;100.00
58090;BME280;45149;50.976;6.120;2022-07-29T04:15:54;100338.91;;;15.36;100.00
58090;BME280;45149;50.976;6.120;2022-07-29T04:18:19;100343.34;;;15.25;100.00
58090;BME280;45149;50.976;6.120;2022-07-29T04:20:44;100348.09;;;15.40;100.00
58090;BME280;45149;50.976;6.120;2022-07-29T04:23:10;100367.03;;;15.51;100.00
58090;BME280;45149;50.976;6.120;2022-07-29T04:25:39;100360.50;;;15.63;100.00
58090;BME280;45149;50.976;6.120;2022-07-29T04:28:05;100353.34;;;15.74;100.00
58090;BME280;45149;50.976;6.120;2022-07-29T04:30:32;100347.53;;;15.83;100.00
58090;BME280;45149;50.976;6.120;2022-07-29T04:32:58;100356.25;;;15.73;100.00
58090;BME280;45149;50.976;6.120;2022-07-29T04:35:26;100359.47;;;15.70;100.00
58090;BME280;45149;50.976;6.120;2022-07-29T04:37:51;100355.97;;;15.69;100.00
58090;BME280;45149;50.976;6.120;2022-07-29T04:40:16;100365.22;;;15.56;100.00
58090;BME280;45149;50.976;6.120;2022-07-29T04:42:42;100359.72;;;15.68;100.00
58090;BME280;45149;50.976;6.120;2022-07-29T04:45:07;100363.94;;;15.81;100.00
58090;BME280;45149;50.976;6.120;2022-07-29T04:47:33;100351.72;;;15.73;100.00
58090;BME280;45149;50.976;6.120;2022-07-29T04:49:58;100352.00;;;15.77;100.00
58090;BME280;45149;50.976;6.120;2022-07-29T04:52:24;100347.78;;;15.81;100.00
58090;BME280;45149;50.976;6.120;2022-07-29T04:54:49;100336.97;;;15.54;100.00
58090;BME280;45149;50.976;6.120;2022-07-29T04:57:15;100350.78;;;15.40;100.00
58090;BME280;45149;50.976;6.120;2022-07-29T04:59:40;100344.13;;;15.48;100.00
58090;BME280;45149;50.976;6.120;2022-07-29T05:02:05;100341.75;;;15.52;100.00
58090;BME280;45149;50.976;6.120;2022-07-29T05:04:31;100355.28;;;15.57;100.00
58090;BME280;45149;50.976;6.120;2022-07-29T05:06:56;100346.91;;;15.53;100.00
58090;BME280;45149;50.976;6.120;2022-07-29T05:09:21;100339.44;;;15.60;100.00
58090;BME280;45149;50.976;6.120;2022-07-29T05:11:47;100341.69;;;15.69;100.00
58090;BME280;45149;50.976;6.120;2022-07-29T05:14:12;100340.53;;;15.82;100.00
58090;BME280;45149;50.976;6.120;2022-07-29T05:16:38;100341.81;;;15.79;100.00
58090;BME280;45149;50.976;6.120;2022-07-29T05:19:05;100347.03;;;15.86;100.00
58090;BME280;45149;50.976;6.120;2022-07-29T05:21:30;100354.34;;;15.90;100.00
58090;BME280;45149;50.976;6.120;2022-07-29T05:23:55;100353.28;;;15.91;100.00
58090;BME280;45149;50.976;6.120;2022-07-29T05:26:21;100362.75;;;15.99;100.00
58090;BME280;45149;50.976;6.120;2022-07-29T05:28:46;100355.84;;;15.81;100.00
58090;BME280;45149;50.976;6.120;2022-07-29T05:31:12;100353.78;;;15.88;100.00
58090;BME280;45149;50.976;6.120;2022-07-29T05:33:39;100359.41;;;15.87;100.00
58090;BME280;45149;50.976;6.120;2022-07-29T05:36:05;100368.50;;;15.81;100.00
58090;BME280;45149;50.976;6.120;2022-07-29T05:38:31;100376.81;;;15.79;100.00
58090;BME280;45149;50.976;6.120;2022-07-29T05:40:58;100375.19;;;16.00;100.00
58090;BME280;45149;50.976;6.120;2022-07-29T05:43:24;100374.81;;;15.91;100.00
58090;BME280;45149;50.976;6.120;2022-07-29T05:45:49;100370.72;;;16.11;100.00
58090;BME280;45149;50.976;6.120;2022-07-29T05:48:15;100379.31;;;16.08;100.00
58090;BME280;45149;50.976;6.120;2022-07-29T05:50:40;100385.75;;;16.07;100.00
58090;BME280;45149;50.976;6.120;2022-07-29T05:53:05;100388.56;;;16.17;100.00
58090;BME280;45149;50.976;6.120;2022-07-29T05:55:31;100393.44;;;16.20;100.00
58090;BME280;45149;50.976;6.120;2022-07-29T05:57:56;100396.38;;;16.19;100.00
58090;BME280;45149;50.976;6.120;2022-07-29T06:00:22;100396.38;;;16.46;100.00
58090;BME280;45149;50.976;6.120;2022-07-29T06:02:47;100399.78;;;16.36;100.00
58090;BME280;45149;50.976;6.120;2022-07-29T06:05:13;100393.56;;;16.36;100.00
58090;BME280;45149;50.976;6.120;2022-07-29T06:07:39;100395.00;;;16.43;100.00
58090;BME280;45149;50.976;6.120;2022-07-29T06:10:04;100395.41;;;16.62;100.00
58090;BME280;45149;50.976;6.120;2022-07-29T06:12:30;100402.56;;;16.79;100.00
58090;BME280;45149;50.976;6.120;2022-07-29T06:14:55;100395.88;;;16.87;100.00
58090;BME280;45149;50.976;6.120;2022-07-29T06:17:21;100399.38;;;16.87;100.00
58090;BME280;45149;50.976;6.120;2022-07-29T06:19:47;100392.34;;;16.81;100.00
58090;BME280;45149;50.976;6.120;2022-07-29T06:22:15;100388.44;;;16.99;100.00
58090;BME280;45149;50.976;6.120;2022-07-29T06:24:40;100390.19;;;17.21;100.00
58090;BME280;45149;50.976;6.120;2022-07-29T06:27:09;100398.31;;;17.26;100.00
58090;BME280;45149;50.976;6.120;2022-07-29T06:29:34;100404.81;;;17.30;100.00
58090;BME280;45149;50.976;6.120;2022-07-29T06:32:00;100401.66;;;17.48;100.00
58090;BME280;45149;50.976;6.120;2022-07-29T06:34:25;100402.47;;;17.44;100.00
58090;BME280;45149;50.976;6.120;2022-07-29T06:36:51;100399.91;;;17.80;100.00
58090;BME280;45149;50.976;6.120;2022-07-29T06:39:18;100404.53;;;17.90;100.00
58090;BME280;45149;50.976;6.120;2022-07-29T06:41:47;100402.75;;;18.52;100.00
58090;BME280;45149;50.976;6.120;2022-07-29T06:44:13;100405.75;;;18.40;100.00
58090;BME280;45149;50.976;6.120;2022-07-29T06:46:39;100398.94;;;18.12;100.00
58090;BME280;45149;50.976;6.120;2022-07-29T06:49:04;100395.47;;;18.32;100.00
58090;BME280;45149;50.976;6.120;2022-07-29T06:51:29;100400.03;;;18.26;100.00
58090;BME280;45149;50.976;6.120;2022-07-29T06:53:55;100412.16;;;17.98;100.00
58090;BME280;45149;50.976;6.120;2022-07-29T06:56:22;100410.81;;;18.11;100.00
58090;BME280;45149;50.976;6.120;2022-07-29T06:58:47;100408.03;;;17.90;100.00
58090;BME280;45149;50.976;6.120;2022-07-29T07:01:13;100409.94;;;17.90;100.00
58090;BME280;45149;50.976;6.120;2022-07-29T07:03:38;100412.91;;;17.88;100.00
58090;BME280;45149;50.976;6.120;2022-07-29T07:06:03;100414.03;;;17.92;100.00
58090;BME280;45149;50.976;6.120;2022-07-29T07:08:29;100408.78;;;17.75;100.00
58090;BME280;45149;50.976;6.120;2022-07-29T07:10:54;100415.78;;;17.71;100.00
58090;BME280;45149;50.976;6.120;2022-07-29T07:13:21;100427.66;;;17.65;100.00
58090;BME280;45149;50.976;6.120;2022-07-29T07:15:47;100436.63;;;17.76;100.00
58090;BME280;45149;50.976;6.120;2022-07-29T07:18:14;100427.13;;;17.68;100.00
58090;BME280;45149;50.976;6.120;2022-07-29T07:20:40;100434.84;;;17.97;100.00
58090;BME280;45149;50.976;6.120;2022-07-29T07:23:05;100432.22;;;18.28;100.00
58090;BME280;45149;50.976;6.120;2022-07-29T07:25:31;100437.41;;;18.65;100.00
58090;BME280;45149;50.976;6.120;2022-07-29T07:27:57;100443.88;;;18.64;100.00
58090;BME280;45149;50.976;6.120;2022-07-29T07:30:22;100443.81;;;18.18;100.00
58090;BME280;45149;50.976;6.120;2022-07-29T07:32:48;100445.44;;;18.19;100.00
58090;BME280;45149;50.976;6.120;2022-07-29T07:35:13;100454.38;;;18.20;100.00
58090;BME280;45149;50.976;6.120;2022-07-29T07:37:39;100455.97;;;18.21;100.00
58090;BME280;45149;50.976;6.120;2022-07-29T07:40:09;100448.75;;;18.42;100.00
58090;BME280;45149;50.976;6.120;2022-07-29T07:42:35;100448.50;;;18.84;100.00
58090;BME280;45149;50.976;6.120;2022-07-29T07:45:00;100452.28;;;18.78;100.00
58090;BME280;45149;50.976;6.120;2022-07-29T07:47:25;100445.75;;;19.36;100.00
58090;BME280;45149;50.976;6.120;2022-07-29T07:49:52;100447.38;;;19.42;100.00
58090;BME280;45149;50.976;6.120;2022-07-29T07:52:19;100454.97;;;20.11;100.00
58090;BME280;45149;50.976;6.120;2022-07-29T07:54:45;100447.59;;;20.61;100.00
58090;BME280;45149;50.976;6.120;2022-07-29T07:57:11;100449.47;;;21.30;100.00
58090;BME280;45149;50.976;6.120;2022-07-29T07:59:37;100456.56;;;21.26;100.00
58090;BME280;45149;50.976;6.120;2022-07-29T08:02:03;100453.34;;;21.72;100.00
58090;BME280;45149;50.976;6.120;2022-07-29T08:04:28;100460.56;;;21.82;100.00
58090;BME280;45149;50.976;6.120;2022-07-29T08:06:55;100463.97;;;21.93;100.00
58090;BME280;45149;50.976;6.120;2022-07-29T08:09:21;100460.03;;;22.04;100.00
58090;BME280;45149;50.976;6.120;2022-07-29T08:11:47;100458.25;;;23.22;100.00
58090;BME280;45149;50.976;6.120;2022-07-29T08:14:12;100460.84;;;22.95;100.00
58090;BME280;45149;50.976;6.120;2022-07-29T08:16:39;100460.97;;;21.94;100.00
58090;BME280;45149;50.976;6.120;2022-07-29T08:19:05;100455.41;;;22.04;100.00
58090;BME280;45149;50.976;6.120;2022-07-29T08:21:30;100455.31;;;21.91;100.00
58090;BME280;45149;50.976;6.120;2022-07-29T08:23:55;100453.09;;;22.88;100.00
58090;BME280;45149;50.976;6.120;2022-07-29T08:26:42;100463.59;;;23.08;100.00
58090;BME280;45149;50.976;6.120;2022-07-29T08:29:08;100466.44;;;23.64;100.00
58090;BME280;45149;50.976;6.120;2022-07-29T08:31:34;100471.16;;;23.86;100.00
58090;BME280;45149;50.976;6.120;2022-07-29T08:34:00;100469.53;;;24.50;100.00
58090;BME280;45149;50.976;6.120;2022-07-29T08:36:26;100472.03;;;24.23;100.00
58090;BME280;45149;50.976;6.120;2022-07-29T08:38:52;100478.88;;;25.57;100.00
58090;BME280;45149;50.976;6.120;2022-07-29T08:41:18;100476.00;;;26.28;88.68
58090;BME280;45149;50.976;6.120;2022-07-29T08:43:44;100474.66;;;25.51;92.95
58090;BME280;45149;50.976;6.120;2022-07-29T08:46:10;100475.22;;;25.79;94.17
58090;BME280;45149;50.976;6.120;2022-07-29T08:48:36;100473.31;;;25.39;100.00
58090;BME280;45149;50.976;6.120;2022-07-29T08:51:01;100484.25;;;25.39;99.31
58090;BME280;45149;50.976;6.120;2022-07-29T08:53:28;100476.78;;;25.31;100.00
58090;BME280;45149;50.976;6.120;2022-07-29T08:55:54;100480.97;;;24.01;100.00
58090;BME280;45149;50.976;6.120;2022-07-29T08:58:20;100487.66;;;24.68;100.00
58090;BME280;45149;50.976;6.120;2022-07-29T09:00:51;100473.38;;;23.70;100.00
58090;BME280;45149;50.976;6.120;2022-07-29T09:03:19;100482.78;;;23.50;100.00
58090;BME280;45149;50.976;6.120;2022-07-29T09:05:46;100488.13;;;23.08;100.00
58090;BME280;45149;50.976;6.120;2022-07-29T09:08:13;100482.63;;;22.23;100.00
58090;BME280;45149;50.976;6.120;2022-07-29T09:10:38;100481.97;;;21.88;100.00
58090;BME280;45149;50.976;6.120;2022-07-29T09:13:04;100483.34;;;21.86;100.00
58090;BME280;45149;50.976;6.120;2022-07-29T09:15:30;100483.88;;;21.64;100.00
58090;BME280;45149;50.976;6.120;2022-07-29T09:17:55;100486.72;;;21.53;100.00
58090;BME280;45149;50.976;6.120;2022-07-29T09:20:23;100483.22;;;21.53;100.00
58090;BME280;45149;50.976;6.120;2022-07-29T09:22:49;100487.38;;;21.40;100.00
58090;BME280;45149;50.976;6.120;2022-07-29T09:25:38;100490.28;;;21.49;100.00
58090;BME280;45149;50.976;6.120;2022-07-29T09:28:11;100481.66;;;21.12;100.00
58090;BME280;45149;50.976;6.120;2022-07-29T09:30:50;100473.59;;;20.73;100.00
58090;BME280;45149;50.976;6.120;2022-07-29T09:33:16;100487.94;;;20.28;100.00
58090;BME280;45149;50.976;6.120;2022-07-29T09:35:41;100487.00;;;20.03;100.00
58090;BME280;45149;50.976;6.120;2022-07-29T09:38:11;100487.00;;;20.03;100.00
58090;BME280;45149;50.976;6.120;2022-07-29T09:40:37;100484.56;;;20.02;100.00
58090;BME280;45149;50.976;6.120;2022-07-29T09:43:11;100492.50;;;19.83;100.00
58090;BME280;45149;50.976;6.120;2022-07-29T09:45:36;100490.25;;;20.00;100.00
58090;BME280;45149;50.976;6.120;2022-07-29T09:48:17;100485.06;;;20.09;100.00
58090;BME280;45149;50.976;6.120;2022-07-29T09:50:44;100498.13;;;20.02;100.00
58090;BME280;45149;50.976;6.120;2022-07-29T09:53:10;100502.44;;;20.03;100.00
58090;BME280;45149;50.976;6.120;2022-07-29T09:55:47;100504.31;;;20.08;100.00
58090;BME280;45149;50.976;6.120;2022-07-29T09:58:21;100501.03;;;20.11;100.00
58090;BME280;45149;50.976;6.120;2022-07-29T10:00:49;100505.38;;;20.12;100.00
58090;BME280;45149;50.976;6.120;2022-07-29T10:03:16;100506.38;;;20.31;100.00
58090;BME280;45149;50.976;6.120;2022-07-29T10:05:42;100509.25;;;20.50;100.00
58090;BME280;45149;50.976;6.120;2022-07-29T10:08:09;100512.66;;;20.72;100.00
58090;BME280;45149;50.976;6.120;2022-07-29T10:10:37;100512.56;;;21.46;100.00
58090;BME280;45149;50.976;6.120;2022-07-29T10:13:09;100516.13;;;22.19;100.00
58090;BME280;45149;50.976;6.120;2022-07-29T10:15:36;100524.84;;;23.44;100.00
58090;BME280;45149;50.976;6.120;2022-07-29T10:18:04;100526.03;;;24.63;100.00
58090;BME280;45149;50.976;6.120;2022-07-29T10:20:30;100532.38;;;24.22;100.00
58090;BME280;45149;50.976;6.120;2022-07-29T10:22:55;100530.22;;;23.49;100.00
58090;BME280;45149;50.976;6.120;2022-07-29T10:25:21;100521.94;;;23.40;100.00
58090;BME280;45149;50.976;6.120;2022-07-29T10:27:48;100534.53;;;25.07;100.00
58090;BME280;45149;50.976;6.120;2022-07-29T10:30:16;100526.56;;;26.66;100.00
58090;BME280;45149;50.976;6.120;2022-07-29T10:33:08;100527.34;;;26.40;100.00
58090;BME280;45149;50.976;6.120;2022-07-29T10:44:00;100520.56;;;26.20;100.00
58090;BME280;45149;50.976;6.120;2022-07-29T10:46:26;100515.09;;;26.29;100.00
58090;BME280;45149;50.976;6.120;2022-07-29T10:49:10;100525.38;;;27.76;95.71
58090;BME280;45149;50.976;6.120;2022-07-29T10:51:58;100522.38;;;27.90;92.57
58090;BME280;45149;50.976;6.120;2022-07-29T10:59:43;100521.59;;;26.77;93.72
58090;BME280;45149;50.976;6.120;2022-07-29T11:05:21;100535.97;;;29.34;80.50
58090;BME280;45149;50.976;6.120;2022-07-29T11:10:39;100525.66;;;29.68;76.20
58090;BME280;45149;50.976;6.120;2022-07-29T11:13:05;100528.16;;;29.36;71.93
58090;BME280;45149;50.976;6.120;2022-07-29T11:18:18;100519.22;;;29.39;67.01
58090;BME280;45149;50.976;6.120;2022-07-29T11:20:46;100528.56;;;28.59;68.19
58090;BME280;45149;50.976;6.120;2022-07-29T11:31:38;100539.00;;;29.78;65.80
58090;BME280;45149;50.976;6.120;2022-07-29T11:34:23;100516.84;;;29.99;65.74
58090;BME280;45149;50.976;6.120;2022-07-29T11:47:38;100529.31;;;30.75;62.72
58090;BME280;45149;50.976;6.120;2022-07-29T11:50:04;100531.75;;;30.64;61.12
58090;BME280;45149;50.976;6.120;2022-07-29T11:52:38;100532.88;;;31.20;58.92
58090;BME280;45149;50.976;6.120;2022-07-29T11:55:19;100541.09;;;31.96;56.55
58090;BME280;45149;50.976;6.120;2022-07-29T11:57:46;100535.53;;;31.60;56.42
58090;BME280;45149;50.976;6.120;2022-07-29T12:00:21;100527.13;;;31.73;56.46
58090;BME280;45149;50.976;6.120;2022-07-29T12:02:47;100533.78;;;31.24;56.28
58090;BME280;45149;50.976;6.120;2022-07-29T12:05:12;100527.41;;;30.63;56.36
58090;BME280;45149;50.976;6.120;2022-07-29T12:07:39;100534.13;;;32.02;54.34
58090;BME280;45149;50.976;6.120;2022-07-29T12:10:06;100538.56;;;30.82;51.67
58090;BME280;45149;50.976;6.120;2022-07-29T12:12:32;100523.38;;;29.58;57.01
58090;BME280;45149;50.976;6.120;2022-07-29T12:14:57;100523.19;;;30.81;56.27
58090;BME280;45149;50.976;6.120;2022-07-29T12:17:33;100524.34;;;31.25;52.18
58090;BME280;45149;50.976;6.120;2022-07-29T12:20:01;100515.28;;;30.39;56.54
58090;BME280;45149;50.976;6.120;2022-07-29T12:22:31;100526.75;;;31.58;55.51
58090;BME280;45149;50.976;6.120;2022-07-29T12:25:11;100532.38;;;31.78;52.79
58090;BME280;45149;50.976;6.120;2022-07-29T12:27:37;100520.78;;;31.72;51.71
58090;BME280;45149;50.976;6.120;2022-07-29T12:30:08;100531.19;;;31.95;47.89
58090;BME280;45149;50.976;6.120;2022-07-29T12:32:35;100533.19;;;31.78;49.72
58090;BME280;45149;50.976;6.120;2022-07-29T12:35:19;100533.84;;;32.82;47.73
58090;BME280;45149;50.976;6.120;2022-07-29T12:37:47;100530.38;;;31.94;50.11
58090;BME280;45149;50.976;6.120;2022-07-29T12:40:18;100532.88;;;32.15;50.73
58090;BME280;45149;50.976;6.120;2022-07-29T12:43:06;100536.72;;;33.55;48.63
58090;BME280;45149;50.976;6.120;2022-07-29T12:45:35;100530.91;;;33.37;44.20
58090;BME280;45149;50.976;6.120;2022-07-29T12:48:01;100532.50;;;33.61;42.82
58090;BME280;45149;50.976;6.120;2022-07-29T12:50:26;100521.69;;;32.67;44.30
58090;BME280;45149;50.976;6.120;2022-07-29T12:52:52;100524.44;;;31.92;46.10
58090;BME280;45149;50.976;6.120;2022-07-29T12:55:40;100516.00;;;31.37;48.93
58090;BME280;45149;50.976;6.120;2022-07-29T12:58:05;100514.81;;;30.78;50.16
58090;BME280;45149;50.976;6.120;2022-07-29T13:00:30;100510.09;;;31.23;51.36
58090;BME280;45149;50.976;6.120;2022-07-29T13:02:57;100510.03;;;30.91;48.96
58090;BME280;45149;50.976;6.120;2022-07-29T13:05:23;100507.69;;;31.21;48.20
58090;BME280;45149;50.976;6.120;2022-07-29T13:07:49;100505.75;;;32.41;46.25
58090;BME280;45149;50.976;6.120;2022-07-29T13:10:20;100511.34;;;33.26;45.41
58090;BME280;45149;50.976;6.120;2022-07-29T13:13:08;100516.63;;;33.12;43.23
58090;BME280;45149;50.976;6.120;2022-07-29T13:15:39;100516.28;;;33.37;43.08
58090;BME280;45149;50.976;6.120;2022-07-29T13:18:26;100519.00;;;33.83;41.99
58090;BME280;45149;50.976;6.120;2022-07-29T13:20:51;100523.84;;;33.40;41.12
58090;BME280;45149;50.976;6.120;2022-07-29T13:23:17;100521.88;;;33.90;41.85
58090;BME280;45149;50.976;6.120;2022-07-29T13:25:42;100525.44;;;33.41;38.93
58090;BME280;45149;50.976;6.120;2022-07-29T13:28:08;100519.47;;;31.34;41.87
58090;BME280;45149;50.976;6.120;2022-07-29T13:30:33;100512.53;;;31.24;41.55
58090;BME280;45149;50.976;6.120;2022-07-29T13:32:59;100508.16;;;31.55;42.83
58090;BME280;45149;50.976;6.120;2022-07-29T13:35:24;100510.31;;;31.62;41.74
58090;BME280;45149;50.976;6.120;2022-07-29T13:37:50;100507.88;;;30.84;43.09